Walker, West Virginia
Current Conditions -  °F | °C
As of 8:53 PM on Wednesday 26 Nov 2014 (Local Time) from KPKB Reporting Station
Haze Haze  
Wind Chill: 34°   Ceiling: 4500
Heat Index: 34°   Visibility: 4mi
Dew Point: 32°   Wind: 3mph
Humidity: 92%   Direction: 230°SW
Pressure: 30.05"   Gusts: NA
Location:  39.18°N, 81.38°W
Report Text: KPKB 270153Z 23003KT 4SM BR FEW009 OVC045 01/00 A3005 RMK AO2 SLP183 T00110000
Loading
Personal Weather Stations






























Interactive Weather Map New forecast layout! Learn more

10-Day Weather Forecast

Advertisements
Track Severe Weather on mobile